createdAt,value
2023-02-13T00:01:26.418Z,-1.72
2023-02-13T00:04:00.427Z,-1.71
2023-02-13T00:06:30.810Z,-1.70
2023-02-13T00:08:58.962Z,-1.70
2023-02-13T00:11:29.741Z,-1.73
2023-02-13T00:13:59.603Z,-1.76
2023-02-13T00:16:28.088Z,-1.83
2023-02-13T00:19:03.258Z,-1.90
2023-02-13T00:21:33.876Z,-1.97
2023-02-13T00:24:03.806Z,-2.04
2023-02-13T00:26:32.197Z,-2.13
2023-02-13T00:29:01.915Z,-2.25
2023-02-13T00:31:30.124Z,-2.31
2023-02-13T00:33:58.208Z,-2.38
2023-02-13T00:36:26.336Z,-2.42
2023-02-13T00:38:54.723Z,-2.40
2023-02-13T00:41:22.945Z,-2.39
2023-02-13T00:43:51.680Z,-2.36
2023-02-13T00:46:19.820Z,-2.32
2023-02-13T00:48:49.227Z,-2.28
2023-02-13T00:51:17.463Z,-2.27
2023-02-13T00:53:45.570Z,-2.28
2023-02-13T00:56:13.671Z,-2.31
2023-02-13T00:58:47.994Z,-2.34
2023-02-13T01:01:16.247Z,-2.37
2023-02-13T01:03:44.692Z,-2.39
2023-02-13T01:06:12.914Z,-2.40
2023-02-13T01:08:41.298Z,-2.43
2023-02-13T01:11:10.896Z,-2.43
2023-02-13T01:13:39.395Z,-2.40
2023-02-13T01:16:08.339Z,-2.36
2023-02-13T01:18:38.932Z,-2.35
2023-02-13T01:21:08.406Z,-2.30
2023-02-13T01:23:44.186Z,-2.21
2023-02-13T01:26:19.870Z,-2.13
2023-02-13T01:28:47.999Z,-2.09
2023-02-13T01:31:18.947Z,-2.06
2023-02-13T01:33:47.706Z,-2.03
2023-02-13T01:36:15.810Z,-2.04
2023-02-13T01:38:44.659Z,-2.03
2023-02-13T01:41:15.609Z,-2.04
2023-02-13T01:43:58.484Z,-2.06
2023-02-13T01:46:35.765Z,-2.10
2023-02-13T01:49:29.312Z,-2.11
2023-02-13T01:51:57.451Z,-2.09
2023-02-13T01:54:32.905Z,-2.08
2023-02-13T01:57:08.441Z,-2.03
2023-02-13T01:59:48.703Z,-2.01
2023-02-13T02:02:17.346Z,-1.97
2023-02-13T02:04:46.597Z,-1.93
2023-02-13T02:07:24.962Z,-1.90
2023-02-13T02:09:55.490Z,-1.90
2023-02-13T02:12:23.729Z,-1.91
2023-02-13T02:14:53.736Z,-1.96
2023-02-13T02:17:24.178Z,-1.99
2023-02-13T02:20:17.672Z,-2.02
2023-02-13T02:22:46.189Z,-2.04
2023-02-13T02:25:24.119Z,-2.04
2023-02-13T02:28:19.343Z,-2.01
2023-02-13T02:30:52.178Z,-1.95
2023-02-13T02:33:39.280Z,-1.88
2023-02-13T02:36:15.277Z,-1.82
2023-02-13T02:39:15.927Z,-1.81
2023-02-13T02:42:09.194Z,-1.80
2023-02-13T02:44:48.830Z,-1.82
2023-02-13T02:47:52.196Z,-1.85
2023-02-13T02:50:40.256Z,-1.90
2023-02-13T02:53:28.097Z,-1.94
2023-02-13T02:56:03.039Z,-1.97
2023-02-13T02:58:55.006Z,-1.95
2023-02-13T03:01:45.128Z,-1.93
2023-02-13T03:04:39.346Z,-1.83
2023-02-13T03:07:08.916Z,-1.73
2023-02-13T03:10:00.437Z,-1.67
2023-02-13T03:13:23.888Z,-1.63
2023-02-13T03:16:12.960Z,-1.60
2023-02-13T03:19:01.699Z,-1.67
2023-02-13T03:22:21.429Z,-1.70
2023-02-13T03:25:10.729Z,-1.74
2023-02-13T03:28:20.485Z,-1.78
2023-02-13T03:30:57.477Z,-1.83
2023-02-13T03:33:47.189Z,-1.86
2023-02-13T03:36:40.116Z,-1.83
2023-02-13T03:39:27.005Z,-1.82
2023-02-13T03:42:00.978Z,-1.79
2023-02-13T03:44:40.380Z,-1.77
2023-02-13T03:47:09.192Z,-1.74
2023-02-13T03:50:13.021Z,-1.74
2023-02-13T03:52:52.333Z,-1.74
2023-02-13T03:55:44.600Z,-1.77
2023-02-13T03:58:37.052Z,-1.78
2023-02-13T04:01:06.935Z,-1.80
2023-02-13T04:03:59.644Z,-1.71
2023-02-13T04:06:30.795Z,-1.64
2023-02-13T04:08:59.066Z,-1.58
2023-02-13T04:11:35.032Z,-1.46
2023-02-13T04:14:07.919Z,-1.40
2023-02-13T04:16:43.827Z,-1.32
2023-02-13T04:19:12.033Z,-1.28
2023-02-13T04:21:40.554Z,-1.27
2023-02-13T04:24:09.409Z,-1.30
2023-02-13T04:26:39.579Z,-1.30
2023-02-13T04:29:08.600Z,-1.28
2023-02-13T04:31:36.948Z,-1.26
2023-02-13T04:34:05.125Z,-1.22
2023-02-13T04:36:33.356Z,-1.17
2023-02-13T04:39:01.630Z,-1.11
2023-02-13T04:41:30.572Z,-1.03
2023-02-13T04:43:58.856Z,-0.97
2023-02-13T04:46:27.134Z,-0.90
2023-02-13T04:48:55.565Z,-0.86
2023-02-13T04:51:23.962Z,-0.87
2023-02-13T04:53:52.247Z,-0.87
2023-02-13T04:56:20.662Z,-0.87
2023-02-13T04:58:48.859Z,-0.86
2023-02-13T05:01:17.301Z,-0.86
2023-02-13T05:03:45.775Z,-0.82
2023-02-13T05:06:14.541Z,-0.76
2023-02-13T05:08:42.630Z,-0.70
2023-02-13T05:11:11.276Z,-0.64
2023-02-13T05:13:44.110Z,-0.57
2023-02-13T05:16:12.385Z,-0.55
2023-02-13T05:18:40.943Z,-0.54
2023-02-13T05:21:27.950Z,-0.54
2023-02-13T05:23:56.297Z,-0.53
2023-02-13T05:26:24.443Z,-0.51
2023-02-13T05:29:11.276Z,-0.49
2023-02-13T05:31:40.086Z,-0.45
2023-02-13T05:34:08.436Z,-0.41
2023-02-13T05:36:37.087Z,-0.37
2023-02-13T05:39:05.529Z,-0.35
2023-02-13T05:41:35.691Z,-0.32
2023-02-13T05:44:04.042Z,-0.32
2023-02-13T05:46:32.204Z,-0.31
2023-02-13T05:49:03.899Z,-0.31
2023-02-13T05:51:33.446Z,-0.31
2023-02-13T05:54:01.604Z,-0.30
2023-02-13T05:56:30.023Z,-0.27
2023-02-13T05:58:58.460Z,-0.23
2023-02-13T06:01:26.561Z,-0.18
2023-02-13T06:03:55.931Z,-0.13
2023-02-13T06:06:25.997Z,-0.07
2023-02-13T06:08:55.110Z,-0.05
2023-02-13T06:11:23.722Z,-0.04
2023-02-13T06:13:51.875Z,-0.03
2023-02-13T06:16:24.527Z,-0.03
2023-02-13T06:18:52.783Z,-0.04
2023-02-13T06:21:22.500Z,-0.03
2023-02-13T06:23:51.046Z,0.01
2023-02-13T06:26:19.325Z,0.07
2023-02-13T06:28:47.507Z,0.13
2023-02-13T06:31:16.406Z,0.19
2023-02-13T06:33:47.319Z,0.25
2023-02-13T06:36:15.799Z,0.32
2023-02-13T06:38:43.887Z,0.38
2023-02-13T06:41:12.037Z,0.39
2023-02-13T06:43:40.943Z,0.37
2023-02-13T06:46:09.280Z,0.36
2023-02-13T06:48:37.433Z,0.38
2023-02-13T06:51:05.704Z,0.40
2023-02-13T06:53:33.878Z,0.44
2023-02-13T06:56:04.471Z,0.47
2023-02-13T06:58:34.085Z,0.50
2023-02-13T07:01:02.416Z,0.50
2023-02-13T07:03:30.692Z,0.48
2023-02-13T07:05:58.898Z,0.47
2023-02-13T07:08:27.127Z,0.44
2023-02-13T07:10:57.756Z,0.45
2023-02-13T07:13:26.404Z,0.47
2023-02-13T07:15:54.628Z,0.52
2023-02-13T07:18:25.021Z,0.60
2023-02-13T07:20:53.491Z,0.64
2023-02-13T07:23:21.941Z,0.65
2023-02-13T07:25:50.454Z,0.67
2023-02-13T07:28:19.875Z,0.68
2023-02-13T07:30:48.055Z,0.70
2023-02-13T07:33:17.037Z,0.71
2023-02-13T07:35:52.501Z,0.77
2023-02-13T07:38:22.168Z,0.86
2023-02-13T07:40:50.297Z,0.94
2023-02-13T07:43:18.504Z,1.04
2023-02-13T07:45:47.137Z,1.12
2023-02-13T07:48:16.566Z,1.22
2023-02-13T07:50:45.362Z,1.29
2023-02-13T07:53:13.970Z,1.35
2023-02-13T07:55:43.096Z,1.42
2023-02-13T07:58:12.066Z,1.50
2023-02-13T08:00:40.761Z,1.56
2023-02-13T08:03:09.555Z,1.61
2023-02-13T08:05:38.967Z,1.64
2023-02-13T08:08:07.145Z,1.70
2023-02-13T08:10:59.526Z,1.80
2023-02-13T08:13:27.861Z,1.94
2023-02-13T08:15:56.375Z,2.05
2023-02-13T08:18:25.824Z,2.13
2023-02-13T08:20:53.909Z,2.10
2023-02-13T08:23:22.091Z,2.10
2023-02-13T08:25:54.808Z,2.09
2023-02-13T08:28:23.070Z,2.11
2023-02-13T08:30:51.312Z,2.14
2023-02-13T08:33:20.250Z,2.13
2023-02-13T08:35:48.796Z,2.07
2023-02-13T08:38:18.971Z,2.03
2023-02-13T08:40:47.104Z,2.00
2023-02-13T08:43:15.171Z,2.02
2023-02-13T08:45:45.878Z,2.04
2023-02-13T08:48:14.029Z,2.03
2023-02-13T08:50:42.318Z,2.03
2023-02-13T08:53:11.020Z,-128.00
2023-02-13T08:55:39.702Z,-128.00
2023-02-13T08:58:07.791Z,-128.00
2023-02-13T09:00:36.447Z,-128.00
2023-02-13T09:03:08.384Z,-128.00
2023-02-13T09:05:39.563Z,-128.00
2023-02-13T09:08:11.763Z,-128.00
2023-02-13T09:10:41.362Z,-128.00
2023-02-13T09:13:13.193Z,-128.00
2023-02-13T09:15:41.839Z,-128.00
2023-02-13T09:18:11.512Z,-128.00
2023-02-13T09:20:39.627Z,-128.00
2023-02-13T09:23:09.806Z,-128.00
2023-02-13T09:25:38.377Z,-128.00
2023-02-13T09:28:07.094Z,-128.00
2023-02-13T09:30:36.563Z,-128.00
2023-02-13T09:33:05.367Z,-128.00
2023-02-13T09:35:33.508Z,-128.00
2023-02-13T09:38:02.073Z,-128.00
2023-02-13T09:40:36.073Z,-128.00
2023-02-13T09:43:12.063Z,-128.00
2023-02-13T09:45:41.519Z,-128.00
2023-02-13T09:48:13.953Z,-128.00
2023-02-13T09:50:42.001Z,-128.00
2023-02-13T09:53:16.999Z,-128.00
2023-02-13T09:56:16.404Z,-128.00
2023-02-13T09:58:50.035Z,-128.00
2023-02-13T10:01:28.920Z,-128.00
2023-02-13T10:04:15.949Z,-101.99
2023-02-13T10:06:54.441Z,-128.00
2023-02-13T10:10:13.533Z,-128.00
2023-02-13T10:12:47.811Z,-128.00
2023-02-13T10:15:21.945Z,-128.00
2023-02-13T10:18:01.781Z,-131.07
2023-02-13T10:20:46.036Z,-128.00
2023-02-13T10:23:44.800Z,-128.00
2023-02-13T10:26:21.591Z,-128.00
2023-02-13T10:29:28.345Z,-128.00
2023-02-13T10:31:56.817Z,-131.07
2023-02-13T10:34:26.350Z,-128.00
2023-02-13T10:36:55.063Z,-128.00
2023-02-13T10:39:25.324Z,-128.00
2023-02-13T10:41:58.922Z,-128.00
2023-02-13T10:44:27.521Z,-128.00
2023-02-13T10:47:19.070Z,-128.00
2023-02-13T10:49:54.583Z,-128.00
2023-02-13T10:53:06.232Z,-128.00
2023-02-13T10:55:58.229Z,-128.00
2023-02-13T10:58:32.609Z,-128.00
2023-02-13T11:01:16.545Z,-128.00
2023-02-13T11:03:47.985Z,-128.00
2023-02-13T11:06:17.075Z,-128.00
2023-02-13T11:08:46.652Z,-128.00
2023-02-13T11:11:40.968Z,-128.00
2023-02-13T11:14:22.513Z,-128.00
2023-02-13T11:17:03.244Z,-128.00
2023-02-13T11:19:40.526Z,-128.00
2023-02-13T11:22:11.955Z,-128.00
2023-02-13T11:28:10.767Z,-128.00
2023-02-13T11:30:40.264Z,-128.00
2023-02-13T11:33:18.254Z,-128.00
2023-02-13T11:35:47.027Z,-128.00
2023-02-13T11:38:15.862Z,-128.00
2023-02-13T11:40:50.042Z,-128.00
2023-02-13T11:43:29.662Z,-128.00
2023-02-13T11:46:06.266Z,-128.00
2023-02-13T11:48:35.009Z,-128.00
2023-02-13T11:51:03.450Z,-128.00
2023-02-13T11:53:38.978Z,-128.00
2023-02-13T11:56:12.809Z,-128.00
2023-02-13T11:58:42.023Z,-128.00
2023-02-13T12:01:22.211Z,-128.00
2023-02-13T12:04:17.484Z,-128.00
2023-02-13T12:07:28.350Z,-128.00
2023-02-13T12:10:06.435Z,-128.00
2023-02-13T12:12:38.702Z,-128.00
2023-02-13T12:15:21.266Z,-128.00
2023-02-13T12:18:03.133Z,-128.00
2023-02-13T12:20:54.919Z,-128.00
2023-02-13T12:23:53.560Z,-128.00
2023-02-13T12:26:44.600Z,-128.00
2023-02-13T12:29:15.722Z,-128.00
2023-02-13T12:32:03.178Z,-128.00
2023-02-13T12:34:45.745Z,-128.00
2023-02-13T12:37:23.250Z,-128.00
2023-02-13T12:40:16.118Z,-128.00
2023-02-13T12:43:04.882Z,-128.00
2023-02-13T12:45:39.859Z,-128.00
2023-02-13T12:48:38.624Z,-128.00
2023-02-13T12:51:26.639Z,-128.00
2023-02-13T12:54:22.781Z,-128.00
2023-02-13T12:56:51.119Z,-128.00
2023-02-13T12:59:28.586Z,-128.00
2023-02-13T13:02:29.029Z,-128.00
2023-02-13T13:05:19.332Z,-128.00
2023-02-13T13:08:00.826Z,-128.00
2023-02-13T13:10:40.190Z,-128.00
2023-02-13T13:13:39.420Z,-128.00
2023-02-13T13:16:28.642Z,-128.00
2023-02-13T13:19:30.966Z,-128.00
2023-02-13T13:22:05.821Z,-128.00
2023-02-13T13:24:47.617Z,-128.00
2023-02-13T13:27:24.970Z,-128.00
2023-02-13T13:30:01.363Z,-128.00
2023-02-13T13:32:29.819Z,-128.00
2023-02-13T13:34:57.995Z,-128.00
2023-02-13T13:37:34.249Z,-128.00
2023-02-13T13:40:21.119Z,-128.00
2023-02-13T13:42:54.115Z,-128.00
2023-02-13T13:45:31.235Z,-128.00
2023-02-13T13:48:18.433Z,-128.00
2023-02-13T13:50:48.103Z,-128.00
2023-02-13T13:53:21.076Z,-128.00
2023-02-13T13:56:02.481Z,-128.00
2023-02-13T13:58:41.780Z,-128.00
2023-02-13T14:01:23.537Z,-128.00
2023-02-13T14:03:56.234Z,-128.00
2023-02-13T14:06:27.285Z,-128.00
2023-02-13T14:08:56.869Z,-128.00
2023-02-13T14:11:29.944Z,-128.00
2023-02-13T14:14:00.728Z,-128.00
2023-02-13T14:16:40.780Z,-128.00
2023-02-13T14:19:39.768Z,-128.00
2023-02-13T14:22:20.452Z,-128.00
2023-02-13T14:24:55.325Z,-128.00
2023-02-13T14:27:25.216Z,-128.00
2023-02-13T14:29:53.345Z,-128.00
2023-02-13T14:32:36.690Z,-128.00
2023-02-13T14:35:14.581Z,-128.00
2023-02-13T14:37:53.039Z,-128.00
2023-02-13T14:40:22.343Z,-128.00
2023-02-13T14:42:54.146Z,-128.00
2023-02-13T14:45:27.738Z,-128.00
2023-02-13T14:47:56.976Z,-128.00
2023-02-13T14:50:54.310Z,-128.00
2023-02-13T14:53:46.792Z,-128.00
2023-02-13T14:56:15.249Z,-128.00
2023-02-13T14:58:51.422Z,-128.00
2023-02-13T15:01:36.301Z,-128.00
2023-02-13T15:04:10.998Z,-128.00
2023-02-13T15:06:42.490Z,-128.00
2023-02-13T15:09:45.540Z,-128.00
2023-02-13T15:12:36.692Z,-128.00
2023-02-13T15:15:32.199Z,-128.00
2023-02-13T15:18:04.854Z,-128.00
2023-02-13T15:20:36.907Z,-128.00
2023-02-13T15:23:06.834Z,-128.00
2023-02-13T15:25:39.592Z,-128.00
